Time;durP1;ratioP1;P1;durP2;ratioP2;P2;SDS_P1;SDS_P2;PMS_P1;PMS_P2;Temp;Humidity;BMP_temperature;BMP_pressure;BME280_temperature;BME280_humidity;BME280_pressure;Samples;Min_cycle;Max_cycle;Signal;HPM_P1;HPM_P2
2021/01/24 00:00:45;;;;;;;29.63;17.95;;;2.00;92.50;;;;;;5122380;27;20019;-77
2021/01/24 00:03:10;;;;;;;32.95;19.75;;;2.00;92.60;;;;;;5098657;28;20023;-77
2021/01/24 00:05:36;;;;;;;35.72;19.75;;;1.90;92.60;;;;;;5109784;28;20027;-77
2021/01/24 00:08:01;;;;;;;39.05;21.00;;;1.90;92.70;;;;;;5083460;28;20035;-77
2021/01/24 00:10:27;;;;;;;39.35;21.80;;;1.90;92.80;;;;;;5074912;28;20072;-77
2021/01/24 00:12:53;;;;;;;36.95;20.70;;;1.90;92.90;;;;;;5074805;28;20051;-77
2021/01/24 00:15:18;;;;;;;35.33;20.40;;;1.90;92.80;;;;;;5074898;28;20020;-76
2021/01/24 00:17:44;;;;;;;35.63;19.50;;;1.90;92.90;;;;;;5074509;28;20036;-77
2021/01/24 00:20:10;;;;;;;29.88;18.27;;;1.90;93.20;;;;;;5090236;28;20107;-77
2021/01/24 00:22:37;;;;;;;28.77;16.73;;;1.90;92.90;;;;;;5123306;27;20020;-77
2021/01/24 00:25:04;;;;;;;20.80;13.68;;;1.90;92.90;;;;;;5118964;27;20031;-76
2021/01/24 00:27:29;;;;;;;32.35;15.63;;;1.90;92.90;;;;;;5119121;27;20034;-77
2021/01/24 00:29:55;;;;;;;38.83;16.20;;;1.90;92.80;;;;;;5102579;27;20094;-77
2021/01/24 00:32:21;;;;;;;17.23;11.07;;;1.90;92.90;;;;;;5113709;28;20024;-77
2021/01/24 00:34:46;;;;;;;19.83;11.98;;;1.80;92.90;;;;;;5103465;27;20027;-77
2021/01/24 00:37:13;;;;;;;20.10;12.35;;;1.80;92.90;;;;;;5102829;28;20043;-77
2021/01/24 00:39:39;;;;;;;23.70;13.25;;;1.70;93.00;;;;;;5094579;28;20040;-77
2021/01/24 00:42:04;;;;;;;20.40;12.65;;;1.70;93.10;;;;;;5095871;28;20058;-77
2021/01/24 00:44:30;;;;;;;22.13;13.27;;;1.70;93.20;;;;;;5095021;28;20070;-78
2021/01/24 00:46:56;;;;;;;19.27;12.82;;;1.70;93.20;;;;;;5097833;28;20034;-77
2021/01/24 00:49:21;;;;;;;19.90;13.43;;;1.80;93.10;;;;;;5077609;28;20039;-77
2021/01/24 00:51:47;;;;;;;16.52;12.50;;;1.80;93.10;;;;;;5077558;28;20388;-77
2021/01/24 00:54:13;;;;;;;19.45;11.13;;;1.80;93.10;;;;;;5077767;28;20487;-77
2021/01/24 00:56:38;;;;;;;31.25;15.65;;;1.80;93.10;;;;;;5094319;28;20023;-77
2021/01/24 00:59:04;;;;;;;30.95;17.40;;;1.80;93.10;;;;;;5060878;28;20488;-77
2021/01/24 01:01:30;;;;;;;24.80;14.70;;;1.70;93.10;;;;;;5077578;28;20432;-77
2021/01/24 01:03:56;;;;;;;31.92;17.65;;;1.70;93.20;;;;;;5077585;28;20070;-76
2021/01/24 01:06:21;;;;;;;29.58;16.45;;;1.70;93.30;;;;;;5093730;28;20063;-77
2021/01/24 01:08:47;;;;;;;28.65;16.00;;;1.70;93.40;;;;;;5094044;28;20028;-77
2021/01/24 01:11:13;;;;;;;25.55;14.10;;;1.70;93.40;;;;;;5094385;28;20034;-77
2021/01/24 01:13:38;;;;;;;28.33;16.02;;;1.70;93.40;;;;;;5095333;28;20028;-76
2021/01/24 01:16:04;;;;;;;33.15;15.85;;;1.70;93.40;;;;;;5094065;28;20024;-77
2021/01/24 01:18:30;;;;;;;34.20;15.73;;;1.60;93.40;;;;;;5095130;28;20107;-77
2021/01/24 01:20:57;;;;;;;22.85;13.75;;;1.60;93.50;;;;;;5093875;28;20040;-77
2021/01/24 01:23:23;;;;;;;29.73;15.32;;;1.60;93.50;;;;;;5093922;28;20118;-76
2021/01/24 01:25:53;;;;;;;23.02;13.32;;;1.50;93.60;;;;;;5095746;28;20052;-76
2021/01/24 01:28:19;;;;;;;19.30;11.38;;;1.60;93.60;;;;;;5097061;28;20057;-76
2021/01/24 01:30:44;;;;;;;23.35;12.77;;;1.50;93.50;;;;;;5080497;28;20040;-76
2021/01/24 01:33:10;;;;;;;18.60;11.45;;;1.50;93.60;;;;;;5072569;28;20071;-76
2021/01/24 01:35:35;;;;;;;25.85;11.98;;;1.50;93.70;;;;;;5066071;28;20027;-77
2021/01/24 01:38:01;;;;;;;19.27;10.52;;;1.50;93.70;;;;;;5075316;28;20068;-76
2021/01/24 01:40:27;;;;;;;14.50;8.38;;;1.50;93.70;;;;;;5076693;28;20039;-76
2021/01/24 01:42:53;;;;;;;13.80;7.93;;;1.50;93.80;;;;;;5073077;28;20432;-77
2021/01/24 01:45:18;;;;;;;18.23;8.35;;;1.50;93.80;;;;;;5090038;28;20048;-77
2021/01/24 01:47:44;;;;;;;13.32;7.18;;;1.50;93.90;;;;;;5074829;28;20040;-77
2021/01/24 01:50:10;;;;;;;14.13;7.30;;;1.50;93.90;;;;;;5086030;28;20036;-76
2021/01/24 01:52:36;;;;;;;13.27;7.15;;;1.50;94.00;;;;;;5093381;28;20035;-76
2021/01/24 01:55:02;;;;;;;15.35;7.88;;;1.50;94.00;;;;;;5093044;28;20541;-77
2021/01/24 01:57:27;;;;;;;16.58;7.88;;;1.50;94.00;;;;;;5076219;28;20073;-77
2021/01/24 01:59:53;;;;;;;18.38;9.07;;;1.50;93.90;;;;;;5093298;28;20036;-76
2021/01/24 02:02:37;;;;;;;19.35;9.48;;;1.50;93.90;;;;;;5098765;28;20050;-77
2021/01/24 02:05:45;;;;;;;26.00;10.40;;;1.50;94.00;;;;;;5105884;28;20027;-76
2021/01/24 02:08:24;;;;;;;20.63;9.65;;;1.50;94.30;;;;;;5004697;28;20185;-76
2021/01/24 02:10:57;;;;;;;21.05;10.32;;;1.50;94.10;;;;;;5089330;28;20043;-77
2021/01/24 02:13:44;;;;;;;21.65;10.07;;;1.60;94.10;;;;;;5092462;28;20024;-76
2021/01/24 02:16:11;;;;;;;22.58;10.85;;;1.60;94.00;;;;;;5098890;28;20364;-76
2021/01/24 02:18:40;;;;;;;25.50;10.60;;;1.60;94.00;;;;;;5093839;28;20027;-76
2021/01/24 02:21:22;;;;;;;23.92;10.40;;;1.50;93.90;;;;;;5093954;28;20069;-76
2021/01/24 02:23:49;;;;;;;24.65;10.57;;;1.50;93.90;;;;;;5092171;28;20031;-77
2021/01/24 02:26:29;;;;;;;26.63;11.55;;;1.60;94.00;;;;;;5093697;28;20099;-76
2021/01/24 02:29:13;;;;;;;20.98;11.00;;;1.50;93.90;;;;;;5092378;28;20038;-76
2021/01/24 02:31:40;;;;;;;19.40;10.38;;;1.60;93.90;;;;;;5092079;28;20119;-76
2021/01/24 02:34:08;;;;;;;29.60;13.40;;;1.50;93.90;;;;;;5109383;28;20020;-77
2021/01/24 02:36:35;;;;;;;27.42;12.40;;;1.60;93.90;;;;;;5095318;28;20445;-77
2021/01/24 02:39:02;;;;;;;32.60;15.30;;;1.50;93.90;;;;;;5125880;27;20130;-77
2021/01/24 02:41:28;;;;;;;41.00;15.63;;;1.60;94.00;;;;;;5114401;27;20085;-77
2021/01/24 02:43:54;;;;;;;30.98;15.13;;;1.60;94.00;;;;;;5101517;28;20529;-77
2021/01/24 02:46:20;;;;;;;37.05;17.33;;;1.60;94.00;;;;;;5124443;27;20098;-77
2021/01/24 02:48:47;;;;;;;38.25;17.13;;;1.60;94.00;;;;;;5110673;27;20123;-77
2021/01/24 02:51:13;;;;;;;41.63;17.77;;;1.60;94.00;;;;;;5099038;27;20023;-76
2021/01/24 02:53:40;;;;;;;39.15;17.23;;;1.60;94.00;;;;;;5114229;28;20034;-77
2021/01/24 02:56:07;;;;;;;39.55;17.88;;;1.60;93.90;;;;;;5114526;28;20043;-76
2021/01/24 02:58:32;;;;;;;32.97;16.65;;;1.60;93.90;;;;;;5100136;27;20034;-76
2021/01/24 03:00:58;;;;;;;28.80;14.98;;;1.60;93.90;;;;;;5077698;28;20058;-77
2021/01/24 03:03:24;;;;;;;40.50;17.58;;;1.70;93.90;;;;;;5095609;28;20028;-76
2021/01/24 03:05:50;;;;;;;35.13;16.67;;;1.70;93.90;;;;;;5095182;28;20020;-76
2021/01/24 03:08:17;;;;;;;37.58;17.52;;;1.70;93.80;;;;;;5128383;27;20023;-77
2021/01/24 03:10:43;;;;;;;27.00;15.40;;;1.70;93.80;;;;;;5097871;28;20035;-77
2021/01/24 03:13:11;;;;;;;40.15;17.13;;;1.60;93.80;;;;;;5112972;28;20077;-76
2021/01/24 03:15:38;;;;;;;32.50;16.63;;;1.60;93.80;;;;;;5095239;28;20063;-77
2021/01/24 03:18:04;;;;;;;45.10;18.73;;;1.60;93.80;;;;;;5099221;28;20043;-77
2021/01/24 03:20:34;;;;;;;37.92;17.73;;;1.70;93.80;;;;;;5114856;28;20479;-76
2021/01/24 03:23:01;;;;;;;;;;;1.70;93.80;;;;;;5094537;28;20039;-77
2021/01/24 03:25:27;;;;;;;37.25;17.35;;;1.70;93.80;;;;;;5111658;28;20025;-76
2021/01/24 03:27:53;;;;;;;39.20;18.25;;;1.70;93.80;;;;;;5116033;28;20111;-76
2021/01/24 03:30:19;;;;;;;41.45;17.73;;;1.60;93.70;;;;;;5112019;28;20102;-76
2021/01/24 03:32:44;;;;;;;52.67;20.98;;;1.60;93.70;;;;;;5075490;28;20039;-76
2021/01/24 03:35:11;;;;;;;39.50;19.88;;;1.60;93.80;;;;;;5098440;28;20387;-75
2021/01/24 03:37:36;;;;;;;50.03;22.42;;;1.60;93.80;;;;;;5108705;27;20034;-77
2021/01/24 03:40:03;;;;;;;51.33;23.45;;;1.60;93.90;;;;;;5063347;28;20028;-77
2021/01/24 03:42:29;;;;;;;49.33;23.45;;;1.60;93.90;;;;;;5112664;28;20027;-76
2021/01/24 03:44:55;;;;;;;58.20;26.88;;;1.60;94.00;;;;;;5074802;28;20492;-76
2021/01/24 03:47:21;;;;;;;53.58;25.00;;;1.60;94.00;;;;;;5111477;28;20043;-76
2021/01/24 03:49:47;;;;;;;61.58;27.30;;;1.50;94.00;;;;;;5090322;28;20027;-76
2021/01/24 03:52:12;;;;;;;50.38;25.85;;;1.50;94.00;;;;;;5096510;28;20165;-76
2021/01/24 03:54:38;;;;;;;47.17;24.15;;;1.50;94.00;;;;;;5079805;28;20148;-76
2021/01/24 03:57:03;;;;;;;51.13;25.20;;;1.60;94.10;;;;;;5097869;28;20035;-76
2021/01/24 03:59:29;;;;;;;57.88;26.58;;;1.60;94.10;;;;;;5098950;28;20488;-76
2021/01/24 04:01:54;;;;;;;60.65;28.67;;;1.60;94.00;;;;;;5100570;28;20031;-76
2021/01/24 04:04:20;;;;;;;63.45;28.63;;;1.60;93.90;;;;;;5098895;28;20034;-76
2021/01/24 04:06:46;;;;;;;56.58;27.08;;;1.60;93.90;;;;;;5099057;28;20028;-76
2021/01/24 04:09:11;;;;;;;57.75;27.95;;;1.60;93.90;;;;;;5081836;28;20118;-81
2021/01/24 04:11:37;;;;;;;71.95;30.80;;;1.60;93.90;;;;;;5081879;28;20027;-81
2021/01/24 04:14:02;;;;;;;70.65;31.75;;;1.60;94.00;;;;;;5099037;28;20379;-81
2021/01/24 04:16:28;;;;;;;65.78;31.02;;;1.60;94.00;;;;;;5098490;28;20023;-81
2021/01/24 04:18:54;;;;;;;87.55;34.47;;;1.60;94.10;;;;;;5098837;28;20491;-82
2021/01/24 04:21:19;;;;;;;66.97;32.10;;;1.60;94.10;;;;;;5098586;28;20023;-81
2021/01/24 04:23:45;;;;;;;80.40;35.03;;;1.60;94.00;;;;;;5098625;28;20024;-81
2021/01/24 04:26:11;;;;;;;60.03;30.95;;;1.70;94.10;;;;;;5081533;28;20360;-81
2021/01/24 04:28:36;;;;;;;66.55;32.72;;;1.70;94.10;;;;;;5098947;28;20111;-81
2021/01/24 04:31:02;;;;;;;83.28;33.72;;;1.70;94.10;;;;;;5104157;27;20157;-81
2021/01/24 04:33:28;;;;;;;68.15;29.92;;;1.70;94.10;;;;;;5118112;27;20047;-81
2021/01/24 04:35:53;;;;;;;80.70;31.65;;;1.70;94.10;;;;;;5098342;28;20032;-82
2021/01/24 04:38:19;;;;;;;57.35;28.67;;;1.70;94.30;;;;;;5133822;27;20039;-81
2021/01/24 04:40:44;;;;;;;63.70;28.67;;;1.70;94.10;;;;;;5101642;27;20062;-82
2021/01/24 04:43:11;;;;;;;64.40;27.55;;;1.70;94.10;;;;;;5081743;28;20122;-82
2021/01/24 04:45:37;;;;;;;63.22;25.92;;;1.70;94.20;;;;;;5077948;28;20459;-82
2021/01/24 04:48:03;;;;;;;68.85;27.80;;;1.70;94.20;;;;;;5061149;28;20062;-82
2021/01/24 04:50:29;;;;;;;68.50;26.58;;;1.70;94.20;;;;;;5078607;28;20032;-82
2021/01/24 04:52:57;;;;;;;65.10;26.05;;;1.70;94.30;;;;;;5097967;28;20498;-82
2021/01/24 04:55:24;;;;;;;77.22;27.52;;;1.70;94.30;;;;;;5125345;27;20110;-82
2021/01/24 04:57:53;;;;;;;57.63;24.40;;;1.70;94.40;;;;;;5136547;27;20027;-81
2021/01/24 05:00:19;;;;;;;54.97;24.02;;;1.70;94.40;;;;;;5112904;28;20026;-81
2021/01/24 05:02:45;;;;;;;59.92;24.95;;;1.70;94.40;;;;;;5117083;27;20080;-82
2021/01/24 05:05:11;;;;;;;52.55;24.15;;;1.70;94.40;;;;;;5100837;28;20028;-82
2021/01/24 05:07:37;;;;;;;48.35;21.02;;;1.70;94.40;;;;;;5080616;28;20064;-82
2021/01/24 05:10:04;;;;;;;47.00;21.48;;;1.70;94.40;;;;;;5097649;28;20179;-81
2021/01/24 05:12:30;;;;;;;44.80;19.90;;;1.70;94.50;;;;;;5105685;27;20027;-81
2021/01/24 05:14:59;;;;;;;54.28;23.63;;;1.70;94.40;;;;;;5136469;27;20020;-81
2021/01/24 05:17:25;;;;;;;44.22;20.58;;;1.80;94.50;;;;;;5117974;27;20031;-81
2021/01/24 05:19:52;;;;;;;47.20;20.83;;;1.80;94.40;;;;;;5125763;27;20020;-81
2021/01/24 05:22:17;;;;;;;38.17;18.98;;;1.80;94.70;;;;;;5120228;27;20536;-82
2021/01/24 05:24:43;;;;;;;37.88;18.48;;;1.80;94.40;;;;;;5081487;27;20063;-82
2021/01/24 05:27:11;;;;;;;42.78;20.30;;;1.80;94.40;;;;;;5100349;28;20030;-81
2021/01/24 05:29:40;;;;;;;41.67;21.25;;;1.80;94.40;;;;;;5083827;28;20039;-81
2021/01/24 05:32:07;;;;;;;45.78;21.65;;;1.80;94.30;;;;;;5118631;27;20031;-82
2021/01/24 05:34:33;;;;;;;42.00;21.27;;;1.80;94.30;;;;;;5120309;27;20357;-82
2021/01/24 05:36:59;;;;;;;42.47;21.15;;;1.80;94.30;;;;;;5096750;28;20015;-81
2021/01/24 05:39:28;;;;;;;44.55;21.73;;;1.80;94.30;;;;;;5096825;28;20518;-82
2021/01/24 05:41:56;;;;;;;50.20;22.23;;;1.90;94.30;;;;;;5077024;28;20032;-81
2021/01/24 05:44:24;;;;;;;40.92;20.45;;;1.80;94.30;;;;;;5096851;28;20498;-82
2021/01/24 05:46:52;;;;;;;43.35;21.80;;;1.80;94.40;;;;;;5115222;28;20087;-82
2021/01/24 05:49:23;;;;;;;44.63;22.02;;;1.80;94.40;;;;;;5114963;28;20027;-82
2021/01/24 05:52:05;;;;;;;34.40;19.30;;;1.90;94.40;;;;;;5094681;28;20020;-81
2021/01/24 05:54:42;;;;;;;41.15;19.42;;;1.90;94.40;;;;;;5060513;28;20141;-81
2021/01/24 05:57:10;;;;;;;37.58;19.60;;;1.90;94.40;;;;;;5076497;28;20386;-81
2021/01/24 05:59:58;;;;;;;41.05;20.15;;;1.90;94.40;;;;;;5094495;28;20023;-82
2021/01/24 06:02:25;;;;;;;36.30;19.13;;;1.90;94.40;;;;;;5075203;27;20031;-82
2021/01/24 06:04:51;;;;;;;34.65;19.52;;;1.90;94.40;;;;;;5135362;27;20026;-82
2021/01/24 06:07:18;;;;;;;33.58;18.67;;;1.90;94.40;;;;;;5116852;27;20027;-82
2021/01/24 06:09:44;;;;;;;35.22;19.30;;;1.90;94.40;;;;;;5115290;27;20071;-81
2021/01/24 06:12:11;;;;;;;38.15;20.02;;;1.90;94.40;;;;;;5097167;27;20026;-81
2021/01/24 06:14:39;;;;;;;36.47;19.88;;;1.90;94.40;;;;;;5094442;27;20031;-81
2021/01/24 06:17:24;;;;;;;30.85;18.05;;;1.90;94.50;;;;;;5107155;28;20426;-81
2021/01/24 06:19:55;;;;;;;28.95;17.02;;;1.90;94.50;;;;;;5114026;28;20487;-81
2021/01/24 06:22:23;;;;;;;36.80;19.52;;;2.00;94.40;;;;;;5096270;28;20027;-81
2021/01/24 06:24:54;;;;;;;38.25;19.58;;;2.00;94.40;;;;;;5096270;28;20610;-81
2021/01/24 06:27:25;;;;;;;38.50;18.40;;;2.00;94.40;;;;;;5114583;28;20016;-81
2021/01/24 06:29:55;;;;;;;33.85;18.33;;;2.00;94.40;;;;;;5114353;28;20031;-81
2021/01/24 06:32:29;;;;;;;30.48;17.42;;;2.00;94.40;;;;;;5113984;28;20027;-81
2021/01/24 06:34:56;;;;;;;33.78;17.80;;;2.00;94.40;;;;;;5096187;28;20024;-81
2021/01/24 06:37:27;;;;;;;36.78;19.73;;;2.00;94.50;;;;;;5096063;28;20019;-82
2021/01/24 06:39:55;;;;;;;33.80;18.83;;;2.00;94.50;;;;;;5095925;28;20130;-81
2021/01/24 06:42:47;;;;;;;40.42;20.02;;;2.00;94.60;;;;;;5095925;28;20031;-81
2021/01/24 06:45:22;;;;;;;31.83;18.90;;;2.00;94.60;;;;;;5095716;28;20023;-82
2021/01/24 06:47:48;;;;;;;32.83;18.95;;;2.00;94.60;;;;;;5115251;27;20068;-82
2021/01/24 06:50:43;;;;;;;28.02;18.60;;;2.00;94.60;;;;;;5116211;27;20034;-81
2021/01/24 06:53:18;;;;;;;25.48;17.60;;;2.00;94.60;;;;;;5134636;27;20023;-82
2021/01/24 06:55:58;;;;;;;28.00;19.05;;;2.10;94.50;;;;;;5115403;27;20020;-82
2021/01/24 06:58:29;;;;;;;33.45;20.13;;;2.10;94.50;;;;;;5123710;27;20102;-82
2021/01/24 07:01:23;;;;;;;40.05;21.20;;;2.10;94.50;;;;;;5095623;28;20028;-81
2021/01/24 07:04:16;;;;;;;39.10;22.98;;;2.10;94.50;;;;;;5095619;28;20027;-82
2021/01/24 07:06:43;;;;;;;32.50;21.73;;;2.10;94.40;;;;;;5095466;28;20031;-82
2021/01/24 07:09:32;;;;;;;32.85;21.05;;;2.00;94.40;;;;;;5078910;28;20036;-82
2021/01/24 07:12:02;;;;;;;36.42;22.88;;;2.00;94.50;;;;;;5081654;28;20047;-81
2021/01/24 07:14:37;;;;;;;30.73;21.15;;;2.00;94.50;;;;;;5083225;28;20080;-82
2021/01/24 07:17:11;;;;;;;34.28;21.70;;;2.00;94.60;;;;;;5095345;28;20106;-81
2021/01/24 07:19:41;;;;;;;28.02;19.60;;;2.10;94.50;;;;;;5099810;28;20024;-82
2021/01/24 07:22:08;;;;;;;36.97;22.58;;;2.00;94.40;;;;;;5112355;28;20020;-81
2021/01/24 07:24:34;;;;;;;28.95;19.98;;;2.00;94.40;;;;;;5095326;28;20035;-82
2021/01/24 07:27:00;;;;;;;29.60;19.52;;;2.10;94.40;;;;;;5067849;28;20044;-81
2021/01/24 07:29:27;;;;;;;30.25;18.77;;;2.10;94.40;;;;;;5092114;28;20432;-82
2021/01/24 07:31:52;;;;;;;29.60;19.73;;;2.10;94.40;;;;;;5095393;28;20020;-81
2021/01/24 07:34:22;;;;;;;27.15;17.85;;;2.10;94.40;;;;;;5089587;28;20031;-82
2021/01/24 07:36:48;;;;;;;26.58;16.67;;;2.10;94.40;;;;;;5099446;28;20476;-82
2021/01/24 07:39:15;;;;;;;24.27;15.25;;;2.10;94.40;;;;;;5117556;28;20069;-82
2021/01/24 07:41:42;;;;;;;20.17;14.18;;;2.10;94.40;;;;;;5117409;28;20376;-82
2021/01/24 07:44:07;;;;;;;19.80;14.13;;;2.10;94.30;;;;;;5093569;28;20080;-82
2021/01/24 07:46:33;;;;;;;22.45;13.73;;;2.10;94.30;;;;;;5116851;28;20015;-82
2021/01/24 07:48:58;;;;;;;16.42;11.98;;;2.10;94.30;;;;;;5118902;27;20031;-81
2021/01/24 07:51:24;;;;;;;20.45;12.40;;;2.10;94.20;;;;;;5099191;28;20035;-81
2021/01/24 07:53:50;;;;;;;12.35;9.85;;;2.10;94.20;;;;;;5085118;27;20464;-81
2021/01/24 07:56:15;;;;;;;14.05;10.32;;;2.10;94.20;;;;;;5119614;27;20156;-82
2021/01/24 07:58:41;;;;;;;13.35;9.05;;;2.10;94.20;;;;;;5086370;28;20054;-81
2021/01/24 08:01:08;;;;;;;18.13;10.70;;;2.10;94.20;;;;;;5078793;28;20113;-81
2021/01/24 08:03:34;;;;;;;14.55;10.60;;;2.10;94.20;;;;;;5114029;28;20039;-82
2021/01/24 08:06:07;;;;;;;19.25;12.05;;;2.10;94.10;;;;;;5093928;27;20031;-82
2021/01/24 08:08:35;;;;;;;21.58;13.13;;;2.10;94.10;;;;;;5120177;27;20360;-85
2021/01/24 08:11:01;;;;;;;22.08;13.60;;;2.10;94.10;;;;;;5112721;28;20024;-85
2021/01/24 08:13:27;;;;;;;24.77;13.80;;;2.10;94.20;;;;;;5099335;28;20034;-87
2021/01/24 08:15:54;;;;;;;23.90;14.77;;;2.00;94.20;;;;;;5099392;28;20024;-85
2021/01/24 08:18:20;;;;;;;25.05;14.80;;;2.10;94.20;;;;;;5117081;28;20472;-87
2021/01/24 08:20:46;;;;;;;26.90;16.45;;;2.10;94.20;;;;;;5089574;28;20430;-87
2021/01/24 08:23:13;;;;;;;25.70;16.58;;;2.10;94.20;;;;;;5105498;28;20544;-82
2021/01/24 08:25:40;;;;;;;28.08;16.63;;;2.10;94.10;;;;;;5098800;28;20472;-87
2021/01/24 08:28:07;;;;;;;31.80;17.00;;;2.20;94.20;;;;;;5100506;28;20076;-86
2021/01/24 08:30:40;;;;;;;26.67;16.35;;;2.20;94.10;;;;;;5099958;28;20066;-86
2021/01/24 08:33:20;;;;;;;27.58;16.73;;;2.20;94.10;;;;;;5122486;27;20115;-85
2021/01/24 08:35:48;;;;;;;29.63;16.83;;;2.20;94.10;;;;;;5137791;27;20027;-86
2021/01/24 08:38:14;;;;;;;24.02;15.68;;;2.20;94.00;;;;;;5117222;27;20492;-76
2021/01/24 08:40:41;;;;;;;26.65;15.27;;;2.20;94.00;;;;;;5116305;28;20052;-76
2021/01/24 08:43:08;;;;;;;24.58;15.10;;;2.20;94.00;;;;;;5097572;28;20503;-75
2021/01/24 08:45:35;;;;;;;27.08;15.65;;;2.20;94.00;;;;;;5116070;28;20665;-76
2021/01/24 08:48:03;;;;;;;26.75;16.05;;;2.20;94.00;;;;;;5097921;28;20384;-76
2021/01/24 08:50:37;;;;;;;26.05;14.77;;;2.20;94.00;;;;;;5116095;28;20472;-76
2021/01/24 08:53:04;;;;;;;27.02;13.20;;;2.20;94.00;;;;;;5100754;28;20042;-76
2021/01/24 08:55:30;;;;;;;22.63;12.45;;;2.20;93.90;;;;;;5097756;28;20024;-76
2021/01/24 08:57:56;;;;;;;21.17;12.80;;;2.30;94.30;;;;;;5097781;28;20038;-75
2021/01/24 09:00:23;;;;;;;20.48;11.60;;;2.30;94.00;;;;;;5097626;28;20639;-76
2021/01/24 09:02:49;;;;;;;17.27;11.13;;;2.30;93.90;;;;;;5134728;27;20475;-76
2021/01/24 09:05:32;;;;;;;14.43;9.93;;;2.30;93.80;;;;;;5105905;28;20055;-77
2021/01/24 09:07:58;;;;;;;17.88;9.70;;;2.40;93.80;;;;;;5096179;28;20023;-75
2021/01/24 09:10:30;;;;;;;14.32;9.80;;;2.40;93.70;;;;;;5116016;28;20499;-76
2021/01/24 09:13:04;;;;;;;19.13;9.38;;;2.40;93.70;;;;;;5115708;28;20055;-76
2021/01/24 09:15:33;;;;;;;13.35;9.13;;;2.50;93.60;;;;;;5098241;28;20175;-76
2021/01/24 09:18:01;;;;;;;20.48;9.80;;;2.60;93.50;;;;;;5132791;27;20080;-76
2021/01/24 09:20:28;;;;;;;26.15;10.73;;;2.60;93.40;;;;;;5097531;28;20110;-76
2021/01/24 09:22:54;;;;;;;20.15;11.00;;;2.60;93.30;;;;;;5080661;28;20023;-76
2021/01/24 09:25:19;;;;;;;21.90;11.15;;;2.60;93.20;;;;;;5097136;28;20039;-76
2021/01/24 09:27:45;;;;;;;23.42;12.80;;;2.60;93.20;;;;;;5099623;27;20028;-76
2021/01/24 09:30:16;;;;;;;30.30;12.90;;;2.60;93.10;;;;;;5100559;27;20027;-76
2021/01/24 09:32:42;;;;;;;24.55;14.38;;;2.60;93.10;;;;;;5134266;27;20023;-76
2021/01/24 09:35:08;;;;;;;28.95;15.38;;;2.60;93.10;;;;;;5096918;28;20020;-76
2021/01/24 09:37:34;;;;;;;23.10;13.75;;;2.60;93.10;;;;;;5076561;28;20030;-76
2021/01/24 09:40:00;;;;;;;29.67;15.00;;;2.70;93.30;;;;;;5075992;28;20055;-77
2021/01/24 09:42:25;;;;;;;29.67;15.45;;;2.70;93.20;;;;;;5087167;28;20058;-76
2021/01/24 09:44:51;;;;;;;35.92;19.05;;;2.70;93.30;;;;;;5096859;28;20059;-79
2021/01/24 09:47:17;;;;;;;30.90;19.33;;;2.80;93.20;;;;;;5114625;28;20031;-79
2021/01/24 09:49:42;;;;;;;35.03;20.15;;;2.90;93.40;;;;;;5096455;28;20035;-79
2021/01/24 09:52:08;;;;;;;38.15;21.55;;;2.90;92.80;;;;;;5098058;28;20046;-79
2021/01/24 09:54:34;;;;;;;31.08;18.80;;;2.90;92.90;;;;;;5061919;28;20019;-79
2021/01/24 09:56:59;;;;;;;31.20;17.88;;;2.90;92.90;;;;;;5096088;28;20084;-79
2021/01/24 09:59:25;;;;;;;29.48;18.30;;;2.90;93.10;;;;;;5078720;28;20020;-79
2021/01/24 10:01:51;;;;;;;35.15;17.02;;;2.90;92.70;;;;;;5096318;28;20035;-79
2021/01/24 10:04:16;;;;;;;27.45;16.15;;;2.90;92.50;;;;;;5096177;28;20027;-79
2021/01/24 10:06:42;;;;;;;24.33;14.15;;;2.90;92.50;;;;;;5096156;28;20114;-79
2021/01/24 10:09:09;;;;;;;28.70;15.57;;;2.90;92.60;;;;;;5096550;28;20391;-79
2021/01/24 10:11:35;;;;;;;23.95;15.30;;;3.00;92.60;;;;;;5106087;28;20099;-77
2021/01/24 10:14:01;;;;;;;29.20;15.63;;;3.00;92.50;;;;;;5101437;27;20476;-77
2021/01/24 10:16:28;;;;;;;27.85;15.02;;;3.10;92.60;;;;;;5116676;27;20091;-76
2021/01/24 10:18:54;;;;;;;25.20;14.25;;;3.20;92.70;;;;;;5120811;27;20023;-77
2021/01/24 10:21:19;;;;;;;26.92;14.32;;;3.30;92.60;;;;;;5113952;28;20163;-76
2021/01/24 10:23:45;;;;;;;28.13;13.48;;;3.40;92.50;;;;;;5095342;28;20450;-76
2021/01/24 10:26:11;;;;;;;21.08;12.20;;;3.40;92.30;;;;;;5113627;28;20041;-76
2021/01/24 10:28:37;;;;;;;26.73;12.77;;;3.50;92.20;;;;;;5095628;28;20361;-77
2021/01/24 10:31:02;;;;;;;30.35;15.07;;;3.60;92.10;;;;;;5095550;28;20045;-77
2021/01/24 10:33:28;;;;;;;25.27;13.70;;;3.60;92.20;;;;;;5078838;28;20073;-77
2021/01/24 10:35:54;;;;;;;22.10;12.77;;;3.60;92.00;;;;;;5095016;28;20080;-77
2021/01/24 10:38:21;;;;;;;21.90;12.40;;;3.70;92.00;;;;;;5113570;28;20139;-77
2021/01/24 10:40:47;;;;;;;23.20;13.02;;;3.70;92.00;;;;;;5077187;28;20020;-77
2021/01/24 10:43:13;;;;;;;23.92;12.43;;;3.80;92.00;;;;;;5095544;28;20078;-77
2021/01/24 10:45:38;;;;;;;24.13;12.23;;;3.90;91.90;;;;;;5078543;28;20032;-77
2021/01/24 10:48:06;;;;;;;20.65;11.95;;;3.90;91.60;;;;;;5113530;28;20475;-77
2021/01/24 10:50:33;;;;;;;28.45;12.60;;;3.90;91.30;;;;;;5094919;28;20541;-80
2021/01/24 10:52:58;;;;;;;26.40;12.18;;;3.90;91.20;;;;;;5113503;28;20042;-80
2021/01/24 10:55:24;;;;;;;23.70;12.15;;;3.90;91.20;;;;;;5113559;28;20020;-77
2021/01/24 10:57:51;;;;;;;26.70;11.85;;;4.00;91.40;;;;;;5094762;28;20038;-80
2021/01/24 11:00:17;;;;;;;20.58;11.18;;;4.00;91.10;;;;;;5095084;28;20027;-79
2021/01/24 11:02:42;;;;;;;21.45;10.93;;;4.00;91.10;;;;;;5095104;28;20019;-80
2021/01/24 11:05:09;;;;;;;18.52;10.52;;;4.10;91.10;;;;;;5113191;28;20107;-79
2021/01/24 11:07:38;;;;;;;26.50;11.35;;;4.10;91.20;;;;;;5097815;27;20027;-79
2021/01/24 11:10:05;;;;;;;20.60;10.38;;;4.20;90.80;;;;;;5094838;28;20024;-79
2021/01/24 11:12:31;;;;;;;21.42;10.10;;;4.20;90.60;;;;;;5076878;28;20835;-79
2021/01/24 11:14:56;;;;;;;17.35;9.27;;;4.20;90.60;;;;;;5094859;28;20034;-84
2021/01/24 11:17:22;;;;;;;21.27;10.30;;;4.20;90.60;;;;;;5095077;28;20028;-84
2021/01/24 11:19:51;;;;;;;19.65;9.45;;;4.20;90.50;;;;;;5094871;28;20020;-83
2021/01/24 11:22:18;;;;;;;20.55;9.55;;;4.20;90.10;;;;;;5112562;28;20077;-84
2021/01/24 11:24:44;;;;;;;22.65;9.82;;;4.20;90.30;;;;;;5112269;28;20027;-87
2021/01/24 11:27:10;;;;;;;19.02;9.48;;;4.20;90.30;;;;;;5127300;28;20027;-87
2021/01/24 11:29:35;;;;;;;18.08;9.30;;;4.30;90.40;;;;;;5127551;28;20031;-86
2021/01/24 11:32:01;;;;;;;18.45;9.30;;;4.30;90.20;;;;;;5105703;28;20059;-86
2021/01/24 11:34:27;;;;;;;20.80;8.82;;;4.40;90.10;;;;;;5112249;28;20015;-86
2021/01/24 11:36:53;;;;;;;15.98;8.50;;;4.40;90.00;;;;;;5093548;28;20405;-86
2021/01/24 11:39:19;;;;;;;16.40;8.30;;;4.50;89.90;;;;;;5094167;28;20035;-86
2021/01/24 11:41:45;;;;;;;14.15;8.05;;;4.60;89.90;;;;;;5076177;28;20081;-85
2021/01/24 11:44:11;;;;;;;24.70;8.48;;;4.70;88.90;;;;;;5079015;28;20027;-86
2021/01/24 11:46:36;;;;;;;13.77;7.40;;;4.70;88.60;;;;;;5094743;28;20046;-85
2021/01/24 11:49:02;;;;;;;16.60;7.63;;;4.80;89.10;;;;;;5094235;28;20119;-86
2021/01/24 11:51:27;;;;;;;17.20;7.57;;;4.90;89.40;;;;;;5093634;28;20031;-86
2021/01/24 11:53:53;;;;;;;15.80;8.18;;;5.00;88.60;;;;;;5076590;28;20032;-85
2021/01/24 11:56:20;;;;;;;17.23;7.80;;;5.50;87.00;;;;;;5071643;28;20031;-85
2021/01/24 11:58:46;;;;;;;16.05;7.10;;;6.10;84.10;;;;;;5124253;27;20039;-86
2021/01/24 12:01:12;;;;;;;13.18;7.15;;;6.50;82.20;;;;;;5107801;28;20059;-85
2021/01/24 12:03:38;;;;;;;14.05;6.88;;;6.90;80.40;;;;;;5085716;28;20039;-85
2021/01/24 12:06:04;;;;;;;12.50;5.97;;;7.10;78.20;;;;;;5118378;28;20039;-86
2021/01/24 12:08:29;;;;;;;19.60;7.22;;;7.40;77.90;;;;;;5104925;28;20472;-85
2021/01/24 12:10:55;;;;;;;14.20;6.13;;;7.70;76.60;;;;;;5108436;28;20094;-83
2021/01/24 12:13:20;;;;;;;13.52;5.97;;;7.90;75.80;;;;;;5105138;28;20028;-85
2021/01/24 12:15:46;;;;;;;12.80;6.70;;;8.00;74.10;;;;;;5061650;28;20111;-86
2021/01/24 12:18:12;;;;;;;12.10;5.60;;;8.10;73.90;;;;;;5095301;28;20051;-87
2021/01/24 12:20:37;;;;;;;16.10;7.20;;;8.20;74.00;;;;;;5088254;28;20020;-87
2021/01/24 12:23:03;;;;;;;10.32;5.55;;;8.30;72.50;;;;;;5117182;28;20024;-86
2021/01/24 12:25:28;;;;;;;11.85;6.65;;;8.30;73.00;;;;;;5090475;28;20027;-86
2021/01/24 12:27:54;;;;;;;12.82;6.55;;;8.40;72.60;;;;;;5116342;28;20507;-86
2021/01/24 12:30:20;;;;;;;9.80;5.85;;;8.60;72.10;;;;;;5116381;28;20051;-86
2021/01/24 12:32:46;;;;;;;18.10;6.60;;;8.70;71.90;;;;;;5115804;28;20084;-87
2021/01/24 12:35:12;;;;;;;14.50;6.38;;;8.70;71.10;;;;;;5107623;28;20127;-86
2021/01/24 12:37:38;;;;;;;12.90;6.18;;;8.50;71.00;;;;;;5129015;27;20019;-86
2021/01/24 12:40:04;;;;;;;9.70;5.80;;;8.30;71.10;;;;;;5104779;27;20560;-86